sensor_id;sensor_type;location;lat;lon;timestamp;pressure;altitude;pressure_sealevel;temperature;humidity
83894;BME280;73920;51.902;6.374;2024-02-21T00:01:55;102183.56;;;8.93;82.26
83894;BME280;73920;51.902;6.374;2024-02-21T00:04:21;102172.87;;;8.93;82.84
83894;BME280;73920;51.902;6.374;2024-02-21T00:06:48;102170.13;;;8.96;82.21
83894;BME280;73920;51.902;6.374;2024-02-21T00:09:14;102156.81;;;8.94;82.71
83894;BME280;73920;51.902;6.374;2024-02-21T00:11:40;102172.87;;;8.93;82.83
83894;BME280;73920;51.902;6.374;2024-02-21T00:14:06;102173.75;;;8.93;82.24
83894;BME280;73920;51.902;6.374;2024-02-21T00:16:32;102160.38;;;8.95;82.99
83894;BME280;73920;51.902;6.374;2024-02-21T00:19:00;102161.25;;;8.95;82.90
83894;BME280;73920;51.902;6.374;2024-02-21T00:21:28;102160.38;;;8.95;82.80
83894;BME280;73920;51.902;6.374;2024-02-21T00:23:54;102158.66;;;8.92;82.86
83894;BME280;73920;51.902;6.374;2024-02-21T00:26:20;102158.69;;;8.90;82.94
83894;BME280;73920;51.902;6.374;2024-02-21T00:28:46;102148.03;;;8.90;82.46
83894;BME280;73920;51.902;6.374;2024-02-21T00:31:12;102150.75;;;8.89;82.72
83894;BME280;73920;51.902;6.374;2024-02-21T00:33:39;102144.53;;;8.88;82.58
83894;BME280;73920;51.902;6.374;2024-02-21T00:36:05;102142.78;;;8.87;82.62
83894;BME280;73920;51.902;6.374;2024-02-21T00:38:31;102141.03;;;8.86;83.16
83894;BME280;73920;51.902;6.374;2024-02-21T00:40:57;102142.84;;;8.86;82.73
83894;BME280;73920;51.902;6.374;2024-02-21T00:43:24;102149.09;;;8.83;83.25
83894;BME280;73920;51.902;6.374;2024-02-21T00:45:50;102143.75;;;8.85;83.05
83894;BME280;73920;51.902;6.374;2024-02-21T00:48:16;102149.97;;;8.85;82.75
83894;BME280;73920;51.902;6.374;2024-02-21T00:50:43;102134.78;;;8.87;82.92
83894;BME280;73920;51.902;6.374;2024-02-21T00:53:09;102139.16;;;8.90;82.97
83894;BME280;73920;51.902;6.374;2024-02-21T00:55:35;102135.63;;;8.89;82.72
83894;BME280;73920;51.902;6.374;2024-02-21T00:58:01;102124.09;;;8.89;83.33
83894;BME280;73920;51.902;6.374;2024-02-21T01:00:27;102113.50;;;8.86;82.88
83894;BME280;73920;51.902;6.374;2024-02-21T01:02:54;102109.16;;;8.82;83.04
83894;BME280;73920;51.902;6.374;2024-02-21T01:05:20;102110.94;;;8.81;82.88
83894;BME280;73920;51.902;6.374;2024-02-21T01:07:46;102108.31;;;8.80;83.13
83894;BME280;73920;51.902;6.374;2024-02-21T01:10:12;102102.97;;;8.80;83.31
83894;BME280;73920;51.902;6.374;2024-02-21T01:12:38;102110.06;;;8.81;82.98
83894;BME280;73920;51.902;6.374;2024-02-21T01:15:05;102108.22;;;8.83;83.23
83894;BME280;73920;51.902;6.374;2024-02-21T01:17:32;102100.16;;;8.86;82.84
83894;BME280;73920;51.902;6.374;2024-02-21T01:19:58;102095.69;;;8.86;82.97
83894;BME280;73920;51.902;6.374;2024-02-21T01:22:24;102086.97;;;8.80;82.92
83894;BME280;73920;51.902;6.374;2024-02-21T01:24:50;102093.19;;;8.80;83.19
83894;BME280;73920;51.902;6.374;2024-02-21T01:27:16;102094.16;;;8.78;83.15
83894;BME280;73920;51.902;6.374;2024-02-21T01:29:43;102082.62;;;8.76;82.96
83894;BME280;73920;51.902;6.374;2024-02-21T01:32:09;102084.47;;;8.74;83.17
83894;BME280;73920;51.902;6.374;2024-02-21T01:34:35;102081.91;;;8.71;83.39
83894;BME280;73920;51.902;6.374;2024-02-21T01:37:01;102082.84;;;8.68;83.28
83894;BME280;73920;51.902;6.374;2024-02-21T01:39:27;102074.91;;;8.67;83.31
83894;BME280;73920;51.902;6.374;2024-02-21T01:41:54;102066.03;;;8.66;83.29
83894;BME280;73920;51.902;6.374;2024-02-21T01:44:20;102064.31;;;8.64;83.97
83894;BME280;73920;51.902;6.374;2024-02-21T01:46:46;102069.66;;;8.64;83.87
83894;BME280;73920;51.902;6.374;2024-02-21T01:49:12;102070.56;;;8.63;84.03
83894;BME280;73920;51.902;6.374;2024-02-21T01:51:39;102058.13;;;8.63;83.48
83894;BME280;73920;51.902;6.374;2024-02-21T01:54:06;102065.16;;;8.66;83.43
83894;BME280;73920;51.902;6.374;2024-02-21T01:56:32;102051.78;;;8.67;83.30
83894;BME280;73920;51.902;6.374;2024-02-21T01:58:59;102055.16;;;8.74;83.78
83894;BME280;73920;51.902;6.374;2024-02-21T02:01:26;102065.69;;;8.78;83.55
83894;BME280;73920;51.902;6.374;2024-02-21T02:03:55;102068.22;;;8.83;83.21
83894;BME280;73920;51.902;6.374;2024-02-21T02:06:22;102061.88;;;8.87;83.30
83894;BME280;73920;51.902;6.374;2024-02-21T02:08:48;102052.00;;;8.90;83.30
83894;BME280;73920;51.902;6.374;2024-02-21T02:11:15;102051.06;;;8.93;82.85
83894;BME280;73920;51.902;6.374;2024-02-21T02:13:41;102044.78;;;8.94;82.73
83894;BME280;73920;51.902;6.374;2024-02-21T02:16:08;102045.62;;;8.96;83.15
83894;BME280;73920;51.902;6.374;2024-02-21T02:18:34;102045.62;;;8.96;82.55
83894;BME280;73920;51.902;6.374;2024-02-21T02:21:00;102042.97;;;8.96;82.53
83894;BME280;73920;51.902;6.374;2024-02-21T02:23:31;102039.41;;;8.96;83.27
83894;BME280;73920;51.902;6.374;2024-02-21T02:25:59;102035.84;;;8.97;82.87
83894;BME280;73920;51.902;6.374;2024-02-21T02:28:25;102026.13;;;8.94;82.94
83894;BME280;73920;51.902;6.374;2024-02-21T02:30:51;102025.19;;;8.97;83.03
83894;BME280;73920;51.902;6.374;2024-02-21T02:33:18;102020.69;;;8.97;82.33
83894;BME280;73920;51.902;6.374;2024-02-21T02:35:44;102025.12;;;8.98;82.25
83894;BME280;73920;51.902;6.374;2024-02-21T02:38:10;102025.09;;;9.00;82.80
83894;BME280;73920;51.902;6.374;2024-02-21T02:40:38;102019.75;;;9.00;82.29
83894;BME280;73920;51.902;6.374;2024-02-21T02:43:05;102013.44;;;9.02;82.52
83894;BME280;73920;51.902;6.374;2024-02-21T02:45:32;102017.88;;;9.02;82.60
83894;BME280;73920;51.902;6.374;2024-02-21T02:47:58;102005.44;;;9.02;82.43
83894;BME280;73920;51.902;6.374;2024-02-21T02:50:25;102001.94;;;9.00;81.76
83894;BME280;73920;51.902;6.374;2024-02-21T02:52:52;102002.84;;;9.01;82.21
83894;BME280;73920;51.902;6.374;2024-02-21T02:55:18;102000.19;;;8.99;82.29
83894;BME280;73920;51.902;6.374;2024-02-21T02:57:45;101990.41;;;9.00;82.29
83894;BME280;73920;51.902;6.374;2024-02-21T03:00:13;101994.72;;;9.04;81.82
83894;BME280;73920;51.902;6.374;2024-02-21T03:02:42;101995.59;;;9.04;81.73
83894;BME280;73920;51.902;6.374;2024-02-21T03:05:13;101991.12;;;9.05;82.15
83894;BME280;73920;51.902;6.374;2024-02-21T03:07:40;101993.78;;;9.05;81.45
83894;BME280;73920;51.902;6.374;2024-02-21T03:10:07;101997.31;;;9.07;82.03
83894;BME280;73920;51.902;6.374;2024-02-21T03:12:34;102004.44;;;9.06;81.89
83894;BME280;73920;51.902;6.374;2024-02-21T03:15:01;101999.00;;;9.09;82.08
83894;BME280;73920;51.902;6.374;2024-02-21T03:17:29;101991.06;;;9.08;81.80
83894;BME280;73920;51.902;6.374;2024-02-21T03:19:56;101990.19;;;9.07;81.83
83894;BME280;73920;51.902;6.374;2024-02-21T03:22:22;101982.09;;;9.09;81.93
83894;BME280;73920;51.902;6.374;2024-02-21T03:24:49;101979.41;;;9.10;81.37
83894;BME280;73920;51.902;6.374;2024-02-21T03:27:15;101975.87;;;9.08;81.39
83894;BME280;73920;51.902;6.374;2024-02-21T03:29:41;101977.66;;;9.09;81.22
83894;BME280;73920;51.902;6.374;2024-02-21T03:32:08;101977.66;;;9.09;81.21
83894;BME280;73920;51.902;6.374;2024-02-21T03:34:34;101985.66;;;9.09;81.55
83894;BME280;73920;51.902;6.374;2024-02-21T03:37:00;101991.91;;;9.08;81.26
83894;BME280;73920;51.902;6.374;2024-02-21T03:39:27;101979.50;;;9.07;81.05
83894;BME280;73920;51.902;6.374;2024-02-21T03:41:53;101976.84;;;9.07;81.34
83894;BME280;73920;51.902;6.374;2024-02-21T03:44:19;101979.53;;;9.06;81.30
83894;BME280;73920;51.902;6.374;2024-02-21T03:46:45;101981.28;;;9.07;81.60
83894;BME280;73920;51.902;6.374;2024-02-21T03:49:12;101986.66;;;9.05;80.93
83894;BME280;73920;51.902;6.374;2024-02-21T03:51:38;101978.66;;;9.05;81.02
83894;BME280;73920;51.902;6.374;2024-02-21T03:54:04;101976.00;;;9.05;81.01
83894;BME280;73920;51.902;6.374;2024-02-21T03:56:30;101970.62;;;9.07;81.07
83894;BME280;73920;51.902;6.374;2024-02-21T03:58:57;101953.69;;;9.08;81.48
83894;BME280;73920;51.902;6.374;2024-02-21T04:01:23;101964.41;;;9.06;81.41
83894;BME280;73920;51.902;6.374;2024-02-21T04:03:50;101959.97;;;9.05;81.03
83894;BME280;73920;51.902;6.374;2024-02-21T04:06:16;101963.50;;;9.07;81.60
83894;BME280;73920;51.902;6.374;2024-02-21T04:08:42;101952.81;;;9.07;80.98
83894;BME280;73920;51.902;6.374;2024-02-21T04:11:08;101963.50;;;9.07;80.79
83894;BME280;73920;51.902;6.374;2024-02-21T04:13:34;101947.50;;;9.07;80.98
83894;BME280;73920;51.902;6.374;2024-02-21T04:16:01;101950.09;;;9.09;81.39
83894;BME280;73920;51.902;6.374;2024-02-21T04:18:27;101951.94;;;9.07;80.87
83894;BME280;73920;51.902;6.374;2024-02-21T04:20:53;101944.84;;;9.06;81.15
83894;BME280;73920;51.902;6.374;2024-02-21T04:23:19;101925.72;;;8.92;80.69
83894;BME280;73920;51.902;6.374;2024-02-21T04:25:45;101941.38;;;9.04;81.55
83894;BME280;73920;51.902;6.374;2024-02-21T04:28:12;101943.97;;;9.05;81.11
83894;BME280;73920;51.902;6.374;2024-02-21T04:30:38;101949.31;;;9.05;81.08
83894;BME280;73920;51.902;6.374;2024-02-21T04:33:04;101948.44;;;9.05;81.29
83894;BME280;73920;51.902;6.374;2024-02-21T04:35:30;101948.44;;;9.05;81.21
83894;BME280;73920;51.902;6.374;2024-02-21T04:37:57;101950.25;;;9.04;80.74
83894;BME280;73920;51.902;6.374;2024-02-21T04:40:23;101946.66;;;9.05;81.24
83894;BME280;73920;51.902;6.374;2024-02-21T04:42:49;101936.91;;;9.04;80.94
83894;BME280;73920;51.902;6.374;2024-02-21T04:45:16;101924.50;;;9.03;81.21
83894;BME280;73920;51.902;6.374;2024-02-21T04:47:43;101935.25;;;9.00;81.13
83894;BME280;73920;51.902;6.374;2024-02-21T04:50:09;101947.66;;;9.01;80.70
83894;BME280;73920;51.902;6.374;2024-02-21T04:52:35;101931.66;;;9.01;81.07
83894;BME280;73920;51.902;6.374;2024-02-21T04:55:02;101931.66;;;9.01;81.18
83894;BME280;73920;51.902;6.374;2024-02-21T04:57:28;101936.16;;;8.99;80.93
83894;BME280;73920;51.902;6.374;2024-02-21T04:59:55;101929.94;;;9.00;80.66
83894;BME280;73920;51.902;6.374;2024-02-21T05:02:21;101922.84;;;8.99;80.84
83894;BME280;73920;51.902;6.374;2024-02-21T05:04:47;101922.88;;;8.98;80.44
83894;BME280;73920;51.902;6.374;2024-02-21T05:07:13;101912.19;;;8.98;80.97
83894;BME280;73920;51.902;6.374;2024-02-21T05:09:39;101912.19;;;8.98;80.97
83894;BME280;73920;51.902;6.374;2024-02-21T05:12:06;101913.97;;;8.97;80.92
83894;BME280;73920;51.902;6.374;2024-02-21T05:14:32;101909.53;;;8.98;81.01
83894;BME280;73920;51.902;6.374;2024-02-21T05:16:59;101903.31;;;8.97;80.82
83894;BME280;73920;51.902;6.374;2024-02-21T05:19:25;101895.38;;;8.96;80.97
83894;BME280;73920;51.902;6.374;2024-02-21T05:21:51;101893.59;;;8.96;81.12
83894;BME280;73920;51.902;6.374;2024-02-21T05:24:17;101898.09;;;8.94;81.06
83894;BME280;73920;51.902;6.374;2024-02-21T05:26:43;101899.84;;;8.95;81.18
83894;BME280;73920;51.902;6.374;2024-02-21T05:29:10;101896.25;;;8.96;80.56
83894;BME280;73920;51.902;6.374;2024-02-21T05:34:12;101892.66;;;8.97;80.77
83894;BME280;73920;51.902;6.374;2024-02-21T05:36:38;101889.97;;;8.97;81.24
83894;BME280;73920;51.902;6.374;2024-02-21T05:39:04;101898.94;;;8.96;80.85
83894;BME280;73920;51.902;6.374;2024-02-21T05:41:30;101898.09;;;8.94;81.24
83894;BME280;73920;51.902;6.374;2024-02-21T05:43:57;101889.28;;;8.92;80.75
83894;BME280;73920;51.902;6.374;2024-02-21T05:46:23;101883.09;;;8.90;81.22
83894;BME280;73920;51.902;6.374;2024-02-21T05:48:49;101879.56;;;8.89;80.99
83894;BME280;73920;51.902;6.374;2024-02-21T05:51:15;101878.78;;;8.86;80.78
83894;BME280;73920;51.902;6.374;2024-02-21T05:53:42;101873.47;;;8.86;81.39
83894;BME280;73920;51.902;6.374;2024-02-21T05:56:13;101875.28;;;8.84;81.63
83894;BME280;73920;51.902;6.374;2024-02-21T05:58:40;101869.91;;;8.85;81.09
83894;BME280;73920;51.902;6.374;2024-02-21T06:01:06;101859.28;;;8.84;80.83
83894;BME280;73920;51.902;6.374;2024-02-21T06:03:33;101853.94;;;8.84;81.48
83894;BME280;73920;51.902;6.374;2024-02-21T06:06:00;101853.06;;;8.83;81.09
83894;BME280;73920;51.902;6.374;2024-02-21T06:08:27;101834.47;;;8.82;81.51
83894;BME280;73920;51.902;6.374;2024-02-21T06:10:53;101831.81;;;8.82;81.56
83894;BME280;73920;51.902;6.374;2024-02-21T06:13:19;101825.63;;;8.80;81.71
83894;BME280;73920;51.902;6.374;2024-02-21T06:15:45;101829.25;;;8.79;81.94
83894;BME280;73920;51.902;6.374;2024-02-21T06:18:12;101823.03;;;8.78;81.44
83894;BME280;73920;51.902;6.374;2024-02-21T06:20:38;101828.41;;;8.77;82.12
83894;BME280;73920;51.902;6.374;2024-02-21T06:23:04;101820.50;;;8.74;82.11
83894;BME280;73920;51.902;6.374;2024-02-21T06:25:30;101824.97;;;8.73;82.31
83894;BME280;73920;51.902;6.374;2024-02-21T06:27:57;101821.41;;;8.73;81.87
83894;BME280;73920;51.902;6.374;2024-02-21T06:30:23;101813.41;;;8.73;82.08
83894;BME280;73920;51.902;6.374;2024-02-21T06:32:49;101817.88;;;8.72;82.26
83894;BME280;73920;51.902;6.374;2024-02-21T06:35:15;101811.66;;;8.72;81.99
83894;BME280;73920;51.902;6.374;2024-02-21T06:37:41;101812.53;;;8.72;81.91
83894;BME280;73920;51.902;6.374;2024-02-21T06:40:08;101811.59;;;8.75;82.34
83894;BME280;73920;51.902;6.374;2024-02-21T06:42:34;101808.84;;;8.76;81.84
83894;BME280;73920;51.902;6.374;2024-02-21T06:45:01;101818.66;;;8.76;81.84
83894;BME280;73920;51.902;6.374;2024-02-21T06:47:27;101808.84;;;8.76;81.70
83894;BME280;73920;51.902;6.374;2024-02-21T06:49:53;101809.69;;;8.78;81.56
83894;BME280;73920;51.902;6.374;2024-02-21T06:52:19;101807.06;;;8.77;81.73
83894;BME280;73920;51.902;6.374;2024-02-21T06:54:47;101807.97;;;8.76;81.31
83894;BME280;73920;51.902;6.374;2024-02-21T06:57:13;101807.97;;;8.76;81.93
83894;BME280;73920;51.902;6.374;2024-02-21T06:59:40;101799.06;;;8.77;81.98
83894;BME280;73920;51.902;6.374;2024-02-21T07:02:07;101807.91;;;8.79;81.26
83894;BME280;73920;51.902;6.374;2024-02-21T07:04:33;101803.37;;;8.81;81.33
83894;BME280;73920;51.902;6.374;2024-02-21T07:06:59;101792.72;;;8.81;81.39
83894;BME280;73920;51.902;6.374;2024-02-21T07:09:26;101793.72;;;8.77;81.19
83894;BME280;73920;51.902;6.374;2024-02-21T07:11:52;101796.16;;;8.84;81.29
83894;BME280;73920;51.902;6.374;2024-02-21T07:14:18;101798.78;;;8.86;80.76
83894;BME280;73920;51.902;6.374;2024-02-21T07:16:45;101800.41;;;8.90;80.77
83894;BME280;73920;51.902;6.374;2024-02-21T07:19:11;101801.19;;;8.94;80.68
83894;BME280;73920;51.902;6.374;2024-02-21T07:21:37;101802.91;;;8.96;81.03
83894;BME280;73920;51.902;6.374;2024-02-21T07:24:04;101799.25;;;8.99;80.93
83894;BME280;73920;51.902;6.374;2024-02-21T07:26:31;101792.00;;;9.02;80.96
83894;BME280;73920;51.902;6.374;2024-02-21T07:28:58;101788.38;;;9.05;80.48
83894;BME280;73920;51.902;6.374;2024-02-21T07:31:24;101785.69;;;9.05;80.52
83894;BME280;73920;51.902;6.374;2024-02-21T07:33:50;101782.19;;;9.04;80.08
83894;BME280;73920;51.902;6.374;2024-02-21T07:36:33;101784.84;;;9.04;79.70
83894;BME280;73920;51.902;6.374;2024-02-21T07:38:59;101781.19;;;9.07;80.29
83894;BME280;73920;51.902;6.374;2024-02-21T07:41:26;101783.00;;;9.06;79.89
83894;BME280;73920;51.902;6.374;2024-02-21T07:43:52;101772.28;;;9.08;80.08
83894;BME280;73920;51.902;6.374;2024-02-21T07:46:19;101769.53;;;9.09;80.00
83894;BME280;73920;51.902;6.374;2024-02-21T07:48:47;101765.09;;;9.10;79.38
83894;BME280;73920;51.902;6.374;2024-02-21T07:51:13;101758.84;;;9.11;79.43
83894;BME280;73920;51.902;6.374;2024-02-21T07:53:41;101760.41;;;9.16;80.04
83894;BME280;73920;51.902;6.374;2024-02-21T07:56:07;101760.25;;;9.21;79.65
83894;BME280;73920;51.902;6.374;2024-02-21T07:58:33;101757.47;;;9.24;79.35
83894;BME280;73920;51.902;6.374;2024-02-21T08:01:00;101749.31;;;9.28;79.34
83894;BME280;73920;51.902;6.374;2024-02-21T08:03:26;101748.34;;;9.31;79.48
83894;BME280;73920;51.902;6.374;2024-02-21T08:05:52;101744.69;;;9.33;79.18
83894;BME280;73920;51.902;6.374;2024-02-21T08:08:18;101742.84;;;9.35;79.08
83894;BME280;73920;51.902;6.374;2024-02-21T08:13:19;101724.53;;;9.50;78.23
83894;BME280;73920;51.902;6.374;2024-02-21T08:15:45;101725.19;;;9.56;78.27
83894;BME280;73920;51.902;6.374;2024-02-21T08:18:11;101712.34;;;9.66;78.07
83894;BME280;73920;51.902;6.374;2024-02-21T08:20:38;101709.53;;;9.70;77.82
83894;BME280;73920;51.902;6.374;2024-02-21T08:23:04;101702.16;;;9.77;77.93
83894;BME280;73920;51.902;6.374;2024-02-21T08:25:30;101696.66;;;9.81;77.28
83894;BME280;73920;51.902;6.374;2024-02-21T08:27:59;101708.03;;;9.86;77.50
83894;BME280;73920;51.902;6.374;2024-02-21T08:30:25;101698.16;;;9.88;76.94
83894;BME280;73920;51.902;6.374;2024-02-21T08:32:52;101698.03;;;9.92;77.15
83894;BME280;73920;51.902;6.374;2024-02-21T08:35:18;101701.47;;;9.95;76.90
83894;BME280;73920;51.902;6.374;2024-02-21T08:37:45;101711.22;;;9.96;77.18
83894;BME280;73920;51.902;6.374;2024-02-21T08:40:12;101709.25;;;10.01;76.85
83894;BME280;73920;51.902;6.374;2024-02-21T08:42:41;101692.28;;;10.02;76.44
83894;BME280;73920;51.902;6.374;2024-02-21T08:45:08;101687.75;;;10.04;76.16
83894;BME280;73920;51.902;6.374;2024-02-21T08:47:34;101691.19;;;10.08;75.94
83894;BME280;73920;51.902;6.374;2024-02-21T08:50:02;101686.63;;;10.10;76.12
83894;BME280;73920;51.902;6.374;2024-02-21T08:52:29;101679.44;;;10.12;75.79
83894;BME280;73920;51.902;6.374;2024-02-21T08:54:55;101652.31;;;9.99;75.85
83894;BME280;73920;51.902;6.374;2024-02-21T08:57:21;101684.84;;;10.10;75.82
83894;BME280;73920;51.902;6.374;2024-02-21T08:59:47;101672.53;;;10.06;76.23
83894;BME280;73920;51.902;6.374;2024-02-21T09:02:14;101671.78;;;10.03;76.00
83894;BME280;73920;51.902;6.374;2024-02-21T09:04:40;101666.38;;;10.04;76.16
83894;BME280;73920;51.902;6.374;2024-02-21T09:07:06;101642.75;;;9.94;75.95
83894;BME280;73920;51.902;6.374;2024-02-21T09:09:33;101656.44;;;10.08;76.18
83894;BME280;73920;51.902;6.374;2024-02-21T09:11:59;101664.37;;;10.09;75.89
83894;BME280;73920;51.902;6.374;2024-02-21T09:14:25;101649.22;;;10.10;75.71
83894;BME280;73920;51.902;6.374;2024-02-21T09:16:52;101645.50;;;10.14;76.02
83894;BME280;73920;51.902;6.374;2024-02-21T09:19:18;101645.41;;;10.17;75.71
83894;BME280;73920;51.902;6.374;2024-02-21T09:21:44;101647.25;;;10.16;76.07
83894;BME280;73920;51.902;6.374;2024-02-21T09:24:10;101650.72;;;10.18;75.49
83894;BME280;73920;51.902;6.374;2024-02-21T09:26:37;101648.03;;;10.18;75.62
83894;BME280;73920;51.902;6.374;2024-02-21T09:29:03;101651.72;;;10.16;75.45
83894;BME280;73920;51.902;6.374;2024-02-21T09:31:29;101656.97;;;10.17;75.71
83894;BME280;73920;51.902;6.374;2024-02-21T09:33:55;101649.78;;;10.19;75.35
83894;BME280;73920;51.902;6.374;2024-02-21T09:36:22;101652.38;;;10.21;75.40
83894;BME280;73920;51.902;6.374;2024-02-21T09:38:48;101655.78;;;10.24;75.32
83894;BME280;73920;51.902;6.374;2024-02-21T09:41:18;101646.72;;;10.28;75.34
83894;BME280;73920;51.902;6.374;2024-02-21T09:43:50;101649.28;;;10.31;75.52
83894;BME280;73920;51.902;6.374;2024-02-21T09:46:18;101628.88;;;10.29;74.86
83894;BME280;73920;51.902;6.374;2024-02-21T09:51:21;101631.75;;;10.24;74.88
83894;BME280;73920;51.902;6.374;2024-02-21T09:53:48;101629.91;;;10.26;75.54
83894;BME280;73920;51.902;6.374;2024-02-21T09:56:15;101626.25;;;10.27;75.14
83894;BME280;73920;51.902;6.374;2024-02-21T09:58:41;101627.00;;;10.31;75.36
83894;BME280;73920;51.902;6.374;2024-02-21T10:01:08;101620.56;;;10.36;75.15
83894;BME280;73920;51.902;6.374;2024-02-21T10:03:34;101617.09;;;10.34;74.13
83894;BME280;73920;51.902;6.374;2024-02-21T10:06:00;101619.63;;;10.38;74.89
83894;BME280;73920;51.902;6.374;2024-02-21T10:08:27;101610.28;;;10.48;75.05
83894;BME280;73920;51.902;6.374;2024-02-21T10:10:53;101611.62;;;10.58;74.75
83894;BME280;73920;51.902;6.374;2024-02-21T10:13:27;101606.16;;;10.61;74.30
83894;BME280;73920;51.902;6.374;2024-02-21T10:18:29;101599.09;;;10.60;74.96
83894;BME280;73920;51.902;6.374;2024-02-21T10:21:03;101598.53;;;10.52;75.01
83894;BME280;73920;51.902;6.374;2024-02-21T10:23:44;101600.72;;;10.42;74.73
83894;BME280;73920;51.902;6.374;2024-02-21T10:26:11;101588.47;;;10.36;75.68
83894;BME280;73920;51.902;6.374;2024-02-21T10:28:38;101560.91;;;10.14;76.20
83894;BME280;73920;51.902;6.374;2024-02-21T10:31:04;101574.94;;;10.19;77.09
83894;BME280;73920;51.902;6.374;2024-02-21T10:33:30;101567.12;;;10.13;77.55
83894;BME280;73920;51.902;6.374;2024-02-21T10:36:09;101558.50;;;10.07;78.29
83894;BME280;73920;51.902;6.374;2024-02-21T10:38:39;101557.09;;;9.98;79.14
83894;BME280;73920;51.902;6.374;2024-02-21T10:41:06;101544.78;;;9.94;79.85
83894;BME280;73920;51.902;6.374;2024-02-21T10:43:38;101536.91;;;9.91;79.96
83894;BME280;73920;51.902;6.374;2024-02-21T10:46:06;101529.69;;;9.93;79.74
83894;BME280;73920;51.902;6.374;2024-02-21T10:48:42;101524.34;;;9.93;79.43
83894;BME280;73920;51.902;6.374;2024-02-21T10:56:39;101504.59;;;9.97;78.98
83894;BME280;73920;51.902;6.374;2024-02-21T10:59:06;101504.63;;;9.96;79.42
83894;BME280;73920;51.902;6.374;2024-02-21T11:01:32;101503.84;;;9.94;78.71
83894;BME280;73920;51.902;6.374;2024-02-21T11:04:02;101499.38;;;9.94;79.16
83894;BME280;73920;51.902;6.374;2024-02-21T11:06:29;101502.78;;;9.98;79.35
83894;BME280;73920;51.902;6.374;2024-02-21T11:09:04;101491.16;;;9.99;79.11
83894;BME280;73920;51.902;6.374;2024-02-21T11:11:40;101487.50;;;10.01;78.90
83894;BME280;73920;51.902;6.374;2024-02-21T11:16:43;101475.50;;;10.11;78.43
83894;BME280;73920;51.902;6.374;2024-02-21T11:21:41;101454.37;;;10.27;76.79
83894;BME280;73920;51.902;6.374;2024-02-21T11:24:08;101447.06;;;10.30;76.61
83894;BME280;73920;51.902;6.374;2024-02-21T11:26:37;101436.06;;;10.38;76.41
83894;BME280;73920;51.902;6.374;2024-02-21T11:29:04;101424.94;;;10.47;76.31
83894;BME280;73920;51.902;6.374;2024-02-21T11:31:38;101411.38;;;10.52;76.05
83894;BME280;73920;51.902;6.374;2024-02-21T11:34:05;101387.88;;;10.58;75.82
83894;BME280;73920;51.902;6.374;2024-02-21T11:36:34;101364.22;;;10.49;74.42
83894;BME280;73920;51.902;6.374;2024-02-21T11:39:04;101348.19;;;10.49;74.80
83894;BME280;73920;51.902;6.374;2024-02-21T11:41:31;101361.34;;;10.54;74.94
83894;BME280;73920;51.902;6.374;2024-02-21T11:43:57;101356.94;;;10.53;73.84
83894;BME280;73920;51.902;6.374;2024-02-21T11:46:23;101364.38;;;10.46;74.35
83894;BME280;73920;51.902;6.374;2024-02-21T11:48:50;101368.84;;;10.46;74.08
83894;BME280;73920;51.902;6.374;2024-02-21T11:51:24;101370.72;;;10.44;73.74
83894;BME280;73920;51.902;6.374;2024-02-21T11:53:52;101362.50;;;10.48;73.80
83894;BME280;73920;51.902;6.374;2024-02-21T11:56:19;101356.19;;;10.49;74.15
83894;BME280;73920;51.902;6.374;2024-02-21T11:58:46;101361.50;;;10.51;73.39
83894;BME280;73920;51.902;6.374;2024-02-21T12:01:12;101352.53;;;10.52;73.34
83894;BME280;73920;51.902;6.374;2024-02-21T12:03:39;101335.41;;;10.56;73.65
83894;BME280;73920;51.902;6.374;2024-02-21T12:06:07;101322.06;;;10.56;73.05
83894;BME280;73920;51.902;6.374;2024-02-21T12:13:45;101319.78;;;10.47;72.74
83894;BME280;73920;51.902;6.374;2024-02-21T12:16:11;101297.87;;;10.38;72.80
83894;BME280;73920;51.902;6.374;2024-02-21T12:18:39;101328.69;;;10.47;72.90
83894;BME280;73920;51.902;6.374;2024-02-21T12:21:05;101329.69;;;10.45;72.96
83894;BME280;73920;51.902;6.374;2024-02-21T12:23:31;101327.19;;;10.42;73.60
83894;BME280;73920;51.902;6.374;2024-02-21T12:25:59;101323.78;;;10.38;73.68
83894;BME280;73920;51.902;6.374;2024-02-21T12:28:25;101316.75;;;10.35;73.26
83894;BME280;73920;51.902;6.374;2024-02-21T12:30:52;101298.03;;;10.35;73.80
83894;BME280;73920;51.902;6.374;2024-02-21T12:33:18;101280.19;;;10.36;73.28
83894;BME280;73920;51.902;6.374;2024-02-21T12:35:44;101270.94;;;10.43;73.32
83894;BME280;73920;51.902;6.374;2024-02-21T12:38:11;101259.03;;;10.50;73.30
83894;BME280;73920;51.902;6.374;2024-02-21T12:40:37;101254.91;;;10.62;72.97
83894;BME280;73920;51.902;6.374;2024-02-21T12:43:04;101257.06;;;10.72;73.07
83894;BME280;73920;51.902;6.374;2024-02-21T12:45:30;101246.28;;;10.74;72.28
83894;BME280;73920;51.902;6.374;2024-02-21T12:47:56;101241.78;;;10.74;72.08
83894;BME280;73920;51.902;6.374;2024-02-21T12:50:22;101220.37;;;10.74;72.27
83894;BME280;73920;51.902;6.374;2024-02-21T12:52:49;101214.66;;;10.82;72.56
83894;BME280;73920;51.902;6.374;2024-02-21T12:55:15;101191.16;;;10.89;71.99
83894;BME280;73920;51.902;6.374;2024-02-21T12:57:41;101190.63;;;10.99;72.02
83894;BME280;73920;51.902;6.374;2024-02-21T13:00:09;101171.25;;;11.11;71.27
83894;BME280;73920;51.902;6.374;2024-02-21T13:02:35;101174.56;;;11.16;70.35
83894;BME280;73920;51.902;6.374;2024-02-21T13:05:02;101170.78;;;11.20;70.23
83894;BME280;73920;51.902;6.374;2024-02-21T13:07:31;101156.44;;;11.21;70.31
83894;BME280;73920;51.902;6.374;2024-02-21T13:09:57;101144.78;;;11.22;70.19
83894;BME280;73920;51.902;6.374;2024-02-21T13:12:24;101149.22;;;11.23;69.99
83894;BME280;73920;51.902;6.374;2024-02-21T13:14:50;101131.09;;;11.28;70.24
83894;BME280;73920;51.902;6.374;2024-02-21T13:17:16;101123.59;;;11.35;70.08
83894;BME280;73920;51.902;6.374;2024-02-21T13:19:43;101104.53;;;11.41;70.32
83894;BME280;73920;51.902;6.374;2024-02-21T13:22:09;101096.25;;;11.46;68.83